sensor_id;sensor_type;location;lat;lon;timestamp;P1;durP1;ratioP1;P2;durP2;ratioP2
14770;SDS011;7477;45.222;5.688;2023-12-20T00:01:39;9.77;;;5.80;;
14770;SDS011;7477;45.222;5.688;2023-12-20T00:04:59;7.22;;;4.18;;
14770;SDS011;7477;45.222;5.688;2023-12-20T00:08:18;6.28;;;4.53;;
14770;SDS011;7477;45.222;5.688;2023-12-20T00:11:38;9.32;;;5.95;;
14770;SDS011;7477;45.222;5.688;2023-12-20T00:14:58;6.30;;;4.85;;
14770;SDS011;7477;45.222;5.688;2023-12-20T00:18:17;6.45;;;4.32;;
14770;SDS011;7477;45.222;5.688;2023-12-20T00:21:36;8.70;;;5.13;;
14770;SDS011;7477;45.222;5.688;2023-12-20T00:24:55;5.82;;;4.55;;
14770;SDS011;7477;45.222;5.688;2023-12-20T00:28:14;9.48;;;4.90;;
14770;SDS011;7477;45.222;5.688;2023-12-20T00:31:33;9.27;;;5.22;;
14770;SDS011;7477;45.222;5.688;2023-12-20T00:34:53;6.50;;;5.13;;
14770;SDS011;7477;45.222;5.688;2023-12-20T00:38:12;5.93;;;4.93;;
14770;SDS011;7477;45.222;5.688;2023-12-20T00:41:31;7.60;;;5.10;;
14770;SDS011;7477;45.222;5.688;2023-12-20T00:44:50;7.28;;;4.70;;
14770;SDS011;7477;45.222;5.688;2023-12-20T00:48:09;7.28;;;4.78;;
14770;SDS011;7477;45.222;5.688;2023-12-20T00:51:28;8.13;;;5.18;;
14770;SDS011;7477;45.222;5.688;2023-12-20T00:54:47;8.50;;;6.03;;
14770;SDS011;7477;45.222;5.688;2023-12-20T00:58:07;9.38;;;5.28;;
14770;SDS011;7477;45.222;5.688;2023-12-20T01:01:26;6.82;;;5.00;;
14770;SDS011;7477;45.222;5.688;2023-12-20T01:04:46;6.82;;;5.30;;
14770;SDS011;7477;45.222;5.688;2023-12-20T01:08:05;7.35;;;5.10;;
14770;SDS011;7477;45.222;5.688;2023-12-20T01:11:24;7.55;;;5.85;;
14770;SDS011;7477;45.222;5.688;2023-12-20T01:14:43;8.55;;;5.47;;
14770;SDS011;7477;45.222;5.688;2023-12-20T01:18:03;9.38;;;6.10;;
14770;SDS011;7477;45.222;5.688;2023-12-20T01:21:22;9.30;;;5.10;;
14770;SDS011;7477;45.222;5.688;2023-12-20T01:24:42;9.52;;;5.65;;
14770;SDS011;7477;45.222;5.688;2023-12-20T01:28:01;9.48;;;6.45;;
14770;SDS011;7477;45.222;5.688;2023-12-20T01:31:21;9.25;;;6.18;;
14770;SDS011;7477;45.222;5.688;2023-12-20T01:34:41;8.52;;;5.45;;
14770;SDS011;7477;45.222;5.688;2023-12-20T01:38:00;7.80;;;5.20;;
14770;SDS011;7477;45.222;5.688;2023-12-20T01:41:19;10.55;;;6.05;;
14770;SDS011;7477;45.222;5.688;2023-12-20T01:44:38;7.93;;;5.25;;
14770;SDS011;7477;45.222;5.688;2023-12-20T01:47:57;9.25;;;5.53;;
14770;SDS011;7477;45.222;5.688;2023-12-20T01:51:19;10.98;;;5.85;;
14770;SDS011;7477;45.222;5.688;2023-12-20T01:54:39;8.93;;;5.35;;
14770;SDS011;7477;45.222;5.688;2023-12-20T01:58:00;7.85;;;4.97;;
14770;SDS011;7477;45.222;5.688;2023-12-20T02:01:20;8.75;;;5.13;;
14770;SDS011;7477;45.222;5.688;2023-12-20T02:04:39;6.80;;;5.10;;
14770;SDS011;7477;45.222;5.688;2023-12-20T02:07:59;9.40;;;5.47;;
14770;SDS011;7477;45.222;5.688;2023-12-20T02:11:19;7.80;;;5.22;;
14770;SDS011;7477;45.222;5.688;2023-12-20T02:14:39;8.75;;;5.30;;
14770;SDS011;7477;45.222;5.688;2023-12-20T02:17:58;11.00;;;5.50;;
14770;SDS011;7477;45.222;5.688;2023-12-20T02:21:18;9.57;;;5.55;;
14770;SDS011;7477;45.222;5.688;2023-12-20T02:24:50;8.48;;;6.38;;
14770;SDS011;7477;45.222;5.688;2023-12-20T02:28:09;7.25;;;5.70;;
14770;SDS011;7477;45.222;5.688;2023-12-20T02:31:29;8.88;;;5.55;;
14770;SDS011;7477;45.222;5.688;2023-12-20T02:34:49;12.18;;;6.13;;
14770;SDS011;7477;45.222;5.688;2023-12-20T02:38:08;10.32;;;6.68;;
14770;SDS011;7477;45.222;5.688;2023-12-20T02:41:27;10.40;;;6.50;;
14770;SDS011;7477;45.222;5.688;2023-12-20T02:44:46;10.50;;;6.03;;
14770;SDS011;7477;45.222;5.688;2023-12-20T02:48:05;10.43;;;7.18;;
14770;SDS011;7477;45.222;5.688;2023-12-20T02:51:25;9.50;;;6.57;;
14770;SDS011;7477;45.222;5.688;2023-12-20T02:54:44;10.25;;;6.45;;
14770;SDS011;7477;45.222;5.688;2023-12-20T02:58:03;9.55;;;6.18;;
14770;SDS011;7477;45.222;5.688;2023-12-20T03:01:22;10.20;;;6.18;;
14770;SDS011;7477;45.222;5.688;2023-12-20T03:04:41;9.90;;;6.35;;
14770;SDS011;7477;45.222;5.688;2023-12-20T03:08:00;6.30;;;5.40;;
14770;SDS011;7477;45.222;5.688;2023-12-20T03:11:20;10.40;;;6.32;;
14770;SDS011;7477;45.222;5.688;2023-12-20T03:14:39;9.80;;;4.93;;
14770;SDS011;7477;45.222;5.688;2023-12-20T03:17:58;14.15;;;7.10;;
14770;SDS011;7477;45.222;5.688;2023-12-20T03:21:18;9.93;;;5.80;;
14770;SDS011;7477;45.222;5.688;2023-12-20T03:24:37;11.43;;;7.22;;
14770;SDS011;7477;45.222;5.688;2023-12-20T03:27:56;12.20;;;7.13;;
14770;SDS011;7477;45.222;5.688;2023-12-20T03:31:16;10.93;;;6.15;;
14770;SDS011;7477;45.222;5.688;2023-12-20T03:34:35;7.43;;;5.93;;
14770;SDS011;7477;45.222;5.688;2023-12-20T03:37:54;10.15;;;6.50;;
14770;SDS011;7477;45.222;5.688;2023-12-20T03:41:15;9.50;;;6.18;;
14770;SDS011;7477;45.222;5.688;2023-12-20T03:44:34;11.80;;;6.30;;
14770;SDS011;7477;45.222;5.688;2023-12-20T03:47:57;8.38;;;6.32;;
14770;SDS011;7477;45.222;5.688;2023-12-20T03:51:16;9.88;;;5.85;;
14770;SDS011;7477;45.222;5.688;2023-12-20T03:54:35;11.30;;;6.57;;
14770;SDS011;7477;45.222;5.688;2023-12-20T03:57:55;12.50;;;6.18;;
14770;SDS011;7477;45.222;5.688;2023-12-20T04:01:14;8.40;;;5.82;;
14770;SDS011;7477;45.222;5.688;2023-12-20T04:04:33;8.45;;;6.10;;
14770;SDS011;7477;45.222;5.688;2023-12-20T04:07:52;8.98;;;5.57;;
14770;SDS011;7477;45.222;5.688;2023-12-20T04:11:11;9.40;;;6.85;;
14770;SDS011;7477;45.222;5.688;2023-12-20T04:14:30;9.40;;;6.70;;
14770;SDS011;7477;45.222;5.688;2023-12-20T04:17:50;10.45;;;6.78;;
14770;SDS011;7477;45.222;5.688;2023-12-20T04:21:09;13.30;;;7.68;;
14770;SDS011;7477;45.222;5.688;2023-12-20T04:24:28;12.77;;;6.85;;
14770;SDS011;7477;45.222;5.688;2023-12-20T04:27:47;12.57;;;7.50;;
14770;SDS011;7477;45.222;5.688;2023-12-20T04:31:06;11.55;;;5.78;;
14770;SDS011;7477;45.222;5.688;2023-12-20T04:34:25;8.88;;;7.03;;
14770;SDS011;7477;45.222;5.688;2023-12-20T04:37:44;9.88;;;6.20;;
14770;SDS011;7477;45.222;5.688;2023-12-20T04:41:04;10.93;;;7.00;;
14770;SDS011;7477;45.222;5.688;2023-12-20T04:44:23;10.98;;;7.47;;
14770;SDS011;7477;45.222;5.688;2023-12-20T04:47:43;11.82;;;9.40;;
14770;SDS011;7477;45.222;5.688;2023-12-20T04:51:02;10.43;;;7.45;;
14770;SDS011;7477;45.222;5.688;2023-12-20T04:54:22;11.88;;;6.97;;
14770;SDS011;7477;45.222;5.688;2023-12-20T04:57:41;10.48;;;7.15;;
14770;SDS011;7477;45.222;5.688;2023-12-20T05:01:00;11.90;;;6.47;;
14770;SDS011;7477;45.222;5.688;2023-12-20T05:04:20;9.07;;;6.40;;
14770;SDS011;7477;45.222;5.688;2023-12-20T05:07:39;11.30;;;7.53;;
14770;SDS011;7477;45.222;5.688;2023-12-20T05:10:58;10.85;;;6.28;;
14770;SDS011;7477;45.222;5.688;2023-12-20T05:14:18;12.25;;;7.18;;
14770;SDS011;7477;45.222;5.688;2023-12-20T05:17:37;10.43;;;6.90;;
14770;SDS011;7477;45.222;5.688;2023-12-20T05:20:57;8.77;;;6.97;;
14770;SDS011;7477;45.222;5.688;2023-12-20T05:24:18;11.85;;;7.38;;
14770;SDS011;7477;45.222;5.688;2023-12-20T05:27:37;12.82;;;8.10;;
14770;SDS011;7477;45.222;5.688;2023-12-20T05:30:56;13.93;;;8.07;;
14770;SDS011;7477;45.222;5.688;2023-12-20T05:34:16;11.88;;;8.45;;
14770;SDS011;7477;45.222;5.688;2023-12-20T05:37:35;13.38;;;8.27;;
14770;SDS011;7477;45.222;5.688;2023-12-20T05:40:54;11.52;;;7.55;;
14770;SDS011;7477;45.222;5.688;2023-12-20T05:44:13;12.05;;;8.15;;
14770;SDS011;7477;45.222;5.688;2023-12-20T05:47:32;13.15;;;9.82;;
14770;SDS011;7477;45.222;5.688;2023-12-20T05:50:51;13.90;;;9.27;;
14770;SDS011;7477;45.222;5.688;2023-12-20T05:54:11;13.07;;;9.52;;
14770;SDS011;7477;45.222;5.688;2023-12-20T05:57:30;22.63;;;12.93;;
14770;SDS011;7477;45.222;5.688;2023-12-20T06:00:49;25.13;;;14.82;;
14770;SDS011;7477;45.222;5.688;2023-12-20T06:04:08;17.23;;;10.82;;
14770;SDS011;7477;45.222;5.688;2023-12-20T06:07:27;22.45;;;14.13;;
14770;SDS011;7477;45.222;5.688;2023-12-20T06:10:46;14.98;;;10.38;;
14770;SDS011;7477;45.222;5.688;2023-12-20T06:14:05;23.77;;;14.73;;
14770;SDS011;7477;45.222;5.688;2023-12-20T06:17:24;24.35;;;14.68;;
14770;SDS011;7477;45.222;5.688;2023-12-20T06:20:44;14.70;;;9.75;;
14770;SDS011;7477;45.222;5.688;2023-12-20T06:24:04;20.33;;;11.27;;
14770;SDS011;7477;45.222;5.688;2023-12-20T06:27:23;17.98;;;11.57;;
14770;SDS011;7477;45.222;5.688;2023-12-20T06:30:42;21.58;;;13.75;;
14770;SDS011;7477;45.222;5.688;2023-12-20T06:34:01;21.63;;;13.13;;
14770;SDS011;7477;45.222;5.688;2023-12-20T06:37:21;17.55;;;11.80;;
14770;SDS011;7477;45.222;5.688;2023-12-20T06:40:41;19.00;;;11.48;;
14770;SDS011;7477;45.222;5.688;2023-12-20T06:44:01;21.13;;;12.50;;
14770;SDS011;7477;45.222;5.688;2023-12-20T06:47:20;19.38;;;10.63;;
14770;SDS011;7477;45.222;5.688;2023-12-20T06:50:40;18.88;;;11.02;;
14770;SDS011;7477;45.222;5.688;2023-12-20T06:54:00;22.10;;;14.77;;
14770;SDS011;7477;45.222;5.688;2023-12-20T06:57:21;21.75;;;14.13;;
14770;SDS011;7477;45.222;5.688;2023-12-20T07:00:41;24.48;;;14.13;;
14770;SDS011;7477;45.222;5.688;2023-12-20T07:04:00;19.83;;;11.57;;
14770;SDS011;7477;45.222;5.688;2023-12-20T07:07:19;43.70;;;28.25;;
14770;SDS011;7477;45.222;5.688;2023-12-20T07:10:38;20.42;;;12.00;;
14770;SDS011;7477;45.222;5.688;2023-12-20T07:13:57;24.05;;;13.98;;
14770;SDS011;7477;45.222;5.688;2023-12-20T07:17:16;14.80;;;11.05;;
14770;SDS011;7477;45.222;5.688;2023-12-20T07:20:35;17.75;;;9.73;;
14770;SDS011;7477;45.222;5.688;2023-12-20T07:23:54;17.20;;;9.23;;
14770;SDS011;7477;45.222;5.688;2023-12-20T07:27:13;16.10;;;10.18;;
14770;SDS011;7477;45.222;5.688;2023-12-20T07:30:32;15.20;;;10.15;;
14770;SDS011;7477;45.222;5.688;2023-12-20T07:33:52;14.35;;;9.60;;
14770;SDS011;7477;45.222;5.688;2023-12-20T07:37:11;19.27;;;9.75;;
14770;SDS011;7477;45.222;5.688;2023-12-20T07:40:30;16.23;;;10.30;;
14770;SDS011;7477;45.222;5.688;2023-12-20T07:43:49;17.30;;;9.90;;
14770;SDS011;7477;45.222;5.688;2023-12-20T07:47:08;12.53;;;8.77;;
14770;SDS011;7477;45.222;5.688;2023-12-20T07:50:28;12.77;;;8.55;;
14770;SDS011;7477;45.222;5.688;2023-12-20T07:53:48;14.50;;;8.82;;
14770;SDS011;7477;45.222;5.688;2023-12-20T07:57:07;13.23;;;9.20;;
14770;SDS011;7477;45.222;5.688;2023-12-20T08:00:27;15.98;;;10.35;;
14770;SDS011;7477;45.222;5.688;2023-12-20T08:03:46;15.00;;;10.60;;
14770;SDS011;7477;45.222;5.688;2023-12-20T08:07:07;20.48;;;12.80;;
14770;SDS011;7477;45.222;5.688;2023-12-20T08:10:26;25.02;;;14.88;;
14770;SDS011;7477;45.222;5.688;2023-12-20T08:13:48;22.70;;;12.25;;
14770;SDS011;7477;45.222;5.688;2023-12-20T08:17:07;20.10;;;12.02;;
14770;SDS011;7477;45.222;5.688;2023-12-20T08:20:27;17.85;;;10.70;;
14770;SDS011;7477;45.222;5.688;2023-12-20T08:23:46;20.30;;;12.27;;
14770;SDS011;7477;45.222;5.688;2023-12-20T08:27:06;23.33;;;12.40;;
14770;SDS011;7477;45.222;5.688;2023-12-20T08:30:25;16.75;;;10.18;;
14770;SDS011;7477;45.222;5.688;2023-12-20T08:33:45;21.77;;;13.93;;
14770;SDS011;7477;45.222;5.688;2023-12-20T08:37:05;25.52;;;13.90;;
14770;SDS011;7477;45.222;5.688;2023-12-20T08:40:24;12.25;;;7.93;;
14770;SDS011;7477;45.222;5.688;2023-12-20T08:43:44;8.60;;;6.20;;
14770;SDS011;7477;45.222;5.688;2023-12-20T08:47:03;7.70;;;5.60;;
14770;SDS011;7477;45.222;5.688;2023-12-20T08:50:23;6.25;;;4.10;;
14770;SDS011;7477;45.222;5.688;2023-12-20T08:53:42;3.90;;;3.33;;
14770;SDS011;7477;45.222;5.688;2023-12-20T08:57:04;3.70;;;3.08;;
14770;SDS011;7477;45.222;5.688;2023-12-20T09:00:25;3.25;;;2.15;;
14770;SDS011;7477;45.222;5.688;2023-12-20T09:03:46;2.00;;;1.80;;
14770;SDS011;7477;45.222;5.688;2023-12-20T09:07:05;2.33;;;2.13;;
14770;SDS011;7477;45.222;5.688;2023-12-20T09:10:25;4.00;;;2.75;;
14770;SDS011;7477;45.222;5.688;2023-12-20T09:13:44;5.85;;;2.40;;
14770;SDS011;7477;45.222;5.688;2023-12-20T09:17:03;2.85;;;2.05;;
14770;SDS011;7477;45.222;5.688;2023-12-20T09:20:22;3.13;;;2.63;;
14770;SDS011;7477;45.222;5.688;2023-12-20T09:23:42;2.45;;;2.20;;
14770;SDS011;7477;45.222;5.688;2023-12-20T09:27:01;1.98;;;1.77;;
14770;SDS011;7477;45.222;5.688;2023-12-20T09:30:21;3.00;;;2.47;;
14770;SDS011;7477;45.222;5.688;2023-12-20T09:33:40;2.83;;;2.17;;
14770;SDS011;7477;45.222;5.688;2023-12-20T09:36:59;2.80;;;2.20;;
14770;SDS011;7477;45.222;5.688;2023-12-20T09:40:19;2.42;;;2.05;;
14770;SDS011;7477;45.222;5.688;2023-12-20T09:43:38;2.58;;;2.35;;
14770;SDS011;7477;45.222;5.688;2023-12-20T09:46:58;2.70;;;2.17;;
14770;SDS011;7477;45.222;5.688;2023-12-20T09:50:21;1.98;;;1.80;;
14770;SDS011;7477;45.222;5.688;2023-12-20T09:53:41;2.72;;;2.30;;
14770;SDS011;7477;45.222;5.688;2023-12-20T09:57:02;2.55;;;2.28;;
14770;SDS011;7477;45.222;5.688;2023-12-20T10:00:21;2.72;;;2.10;;
14770;SDS011;7477;45.222;5.688;2023-12-20T10:03:40;4.00;;;2.83;;
14770;SDS011;7477;45.222;5.688;2023-12-20T10:07:01;2.83;;;2.50;;
14770;SDS011;7477;45.222;5.688;2023-12-20T10:10:24;3.72;;;3.08;;
14770;SDS011;7477;45.222;5.688;2023-12-20T10:13:44;4.00;;;2.47;;
14770;SDS011;7477;45.222;5.688;2023-12-20T10:17:06;3.22;;;2.83;;
14770;SDS011;7477;45.222;5.688;2023-12-20T10:20:27;4.25;;;2.72;;
14770;SDS011;7477;45.222;5.688;2023-12-20T10:23:47;4.10;;;2.63;;
14770;SDS011;7477;45.222;5.688;2023-12-20T10:27:09;3.10;;;2.78;;
14770;SDS011;7477;45.222;5.688;2023-12-20T10:30:29;4.15;;;3.45;;
14770;SDS011;7477;45.222;5.688;2023-12-20T10:33:49;3.55;;;2.88;;
14770;SDS011;7477;45.222;5.688;2023-12-20T10:37:08;4.05;;;3.20;;
14770;SDS011;7477;45.222;5.688;2023-12-20T10:40:27;4.00;;;2.92;;
14770;SDS011;7477;45.222;5.688;2023-12-20T10:43:48;3.88;;;3.08;;
14770;SDS011;7477;45.222;5.688;2023-12-20T10:47:08;4.40;;;3.00;;
14770;SDS011;7477;45.222;5.688;2023-12-20T10:50:30;3.45;;;2.72;;
14770;SDS011;7477;45.222;5.688;2023-12-20T10:53:50;4.10;;;3.47;;
14770;SDS011;7477;45.222;5.688;2023-12-20T10:57:11;4.28;;;3.38;;
14770;SDS011;7477;45.222;5.688;2023-12-20T11:00:31;5.85;;;3.60;;
14770;SDS011;7477;45.222;5.688;2023-12-20T11:03:51;4.85;;;3.78;;
14770;SDS011;7477;45.222;5.688;2023-12-20T11:10:59;5.88;;;3.60;;
14770;SDS011;7477;45.222;5.688;2023-12-20T11:14:31;3.78;;;3.20;;
14770;SDS011;7477;45.222;5.688;2023-12-20T11:17:59;5.65;;;4.35;;
14770;SDS011;7477;45.222;5.688;2023-12-20T11:21:18;6.28;;;4.32;;
14770;SDS011;7477;45.222;5.688;2023-12-20T11:24:38;6.38;;;4.00;;
14770;SDS011;7477;45.222;5.688;2023-12-20T11:28:08;5.25;;;3.67;;
14770;SDS011;7477;45.222;5.688;2023-12-20T11:31:29;6.93;;;5.13;;
14770;SDS011;7477;45.222;5.688;2023-12-20T11:35:00;6.05;;;4.43;;
14770;SDS011;7477;45.222;5.688;2023-12-20T11:38:38;6.05;;;4.40;;
14770;SDS011;7477;45.222;5.688;2023-12-20T11:42:07;10.95;;;4.30;;
14770;SDS011;7477;45.222;5.688;2023-12-20T11:45:28;5.15;;;3.83;;
14770;SDS011;7477;45.222;5.688;2023-12-20T11:48:48;6.30;;;4.25;;
14770;SDS011;7477;45.222;5.688;2023-12-20T11:52:07;6.70;;;5.05;;
14770;SDS011;7477;45.222;5.688;2023-12-20T11:55:26;6.70;;;4.63;;
14770;SDS011;7477;45.222;5.688;2023-12-20T11:58:45;8.48;;;5.00;;
14770;SDS011;7477;45.222;5.688;2023-12-20T12:02:05;7.85;;;5.30;;
14770;SDS011;7477;45.222;5.688;2023-12-20T12:05:25;7.40;;;5.28;;
14770;SDS011;7477;45.222;5.688;2023-12-20T12:08:45;8.20;;;5.10;;
14770;SDS011;7477;45.222;5.688;2023-12-20T12:12:04;6.43;;;5.30;;
14770;SDS011;7477;45.222;5.688;2023-12-20T12:15:23;5.97;;;5.03;;
14770;SDS011;7477;45.222;5.688;2023-12-20T12:18:43;6.70;;;5.40;;
14770;SDS011;7477;45.222;5.688;2023-12-20T12:25:37;7.75;;;5.78;;
14770;SDS011;7477;45.222;5.688;2023-12-20T12:28:56;8.07;;;6.10;;
14770;SDS011;7477;45.222;5.688;2023-12-20T12:32:15;7.40;;;5.55;;
14770;SDS011;7477;45.222;5.688;2023-12-20T12:35:34;7.53;;;5.88;;
14770;SDS011;7477;45.222;5.688;2023-12-20T12:38:56;8.40;;;5.30;;
14770;SDS011;7477;45.222;5.688;2023-12-20T12:42:16;8.23;;;6.35;;
14770;SDS011;7477;45.222;5.688;2023-12-20T12:45:36;8.52;;;5.40;;
14770;SDS011;7477;45.222;5.688;2023-12-20T12:48:55;9.60;;;6.88;;
14770;SDS011;7477;45.222;5.688;2023-12-20T12:52:14;8.48;;;5.97;;
14770;SDS011;7477;45.222;5.688;2023-12-20T12:55:34;7.70;;;5.07;;
14770;SDS011;7477;45.222;5.688;2023-12-20T12:58:54;7.38;;;4.38;;
14770;SDS011;7477;45.222;5.688;2023-12-20T13:02:14;6.63;;;5.45;;
14770;SDS011;7477;45.222;5.688;2023-12-20T13:05:34;8.52;;;6.38;;
14770;SDS011;7477;45.222;5.688;2023-12-20T13:08:54;8.48;;;6.00;;
14770;SDS011;7477;45.222;5.688;2023-12-20T13:12:13;7.90;;;5.72;;
14770;SDS011;7477;45.222;5.688;2023-12-20T13:15:33;9.07;;;5.75;;
14770;SDS011;7477;45.222;5.688;2023-12-20T13:18:52;7.45;;;5.28;;
14770;SDS011;7477;45.222;5.688;2023-12-20T13:22:11;10.30;;;5.57;;
14770;SDS011;7477;45.222;5.688;2023-12-20T13:25:30;7.00;;;5.07;;
14770;SDS011;7477;45.222;5.688;2023-12-20T13:28:49;5.22;;;4.18;;
14770;SDS011;7477;45.222;5.688;2023-12-20T13:32:08;4.20;;;3.25;;
14770;SDS011;7477;45.222;5.688;2023-12-20T13:35:28;4.35;;;3.33;;
14770;SDS011;7477;45.222;5.688;2023-12-20T13:38:48;4.68;;;3.38;;
14770;SDS011;7477;45.222;5.688;2023-12-20T13:42:07;5.45;;;4.10;;
14770;SDS011;7477;45.222;5.688;2023-12-20T13:45:26;5.32;;;3.50;;
14770;SDS011;7477;45.222;5.688;2023-12-20T13:48:45;7.60;;;5.25;;
14770;SDS011;7477;45.222;5.688;2023-12-20T13:52:04;6.50;;;3.95;;
14770;SDS011;7477;45.222;5.688;2023-12-20T13:55:24;6.53;;;4.43;;
14770;SDS011;7477;45.222;5.688;2023-12-20T13:58:45;6.70;;;4.88;;
14770;SDS011;7477;45.222;5.688;2023-12-20T14:02:05;7.25;;;4.20;;
14770;SDS011;7477;45.222;5.688;2023-12-20T14:05:24;4.82;;;3.47;;
14770;SDS011;7477;45.222;5.688;2023-12-20T14:08:45;5.50;;;4.40;;
14770;SDS011;7477;45.222;5.688;2023-12-20T14:12:04;8.20;;;4.35;;
14770;SDS011;7477;45.222;5.688;2023-12-20T14:15:24;6.47;;;3.72;;
14770;SDS011;7477;45.222;5.688;2023-12-20T14:18:44;9.07;;;4.07;;
14770;SDS011;7477;45.222;5.688;2023-12-20T14:22:03;5.05;;;4.00;;
14770;SDS011;7477;45.222;5.688;2023-12-20T14:25:23;6.18;;;4.55;;
14770;SDS011;7477;45.222;5.688;2023-12-20T14:28:42;5.45;;;3.75;;
14770;SDS011;7477;45.222;5.688;2023-12-20T14:32:01;5.85;;;4.70;;
14770;SDS011;7477;45.222;5.688;2023-12-20T14:35:21;6.72;;;5.07;;
14770;SDS011;7477;45.222;5.688;2023-12-20T14:38:41;6.25;;;4.40;;
14770;SDS011;7477;45.222;5.688;2023-12-20T14:42:00;11.80;;;7.60;;
14770;SDS011;7477;45.222;5.688;2023-12-20T14:45:20;3.53;;;2.60;;
14770;SDS011;7477;45.222;5.688;2023-12-20T14:48:40;6.35;;;3.42;;
14770;SDS011;7477;45.222;5.688;2023-12-20T14:51:59;4.55;;;2.75;;
14770;SDS011;7477;45.222;5.688;2023-12-20T14:55:18;4.47;;;3.10;;
14770;SDS011;7477;45.222;5.688;2023-12-20T14:58:39;4.40;;;2.60;;
14770;SDS011;7477;45.222;5.688;2023-12-20T15:01:59;4.43;;;2.65;;
14770;SDS011;7477;45.222;5.688;2023-12-20T15:05:18;3.63;;;2.78;;
14770;SDS011;7477;45.222;5.688;2023-12-20T15:08:37;2.75;;;2.00;;
14770;SDS011;7477;45.222;5.688;2023-12-20T15:11:57;2.25;;;2.05;;
14770;SDS011;7477;45.222;5.688;2023-12-20T15:15:16;3.92;;;2.63;;
14770;SDS011;7477;45.222;5.688;2023-12-20T15:18:35;2.83;;;2.30;;
14770;SDS011;7477;45.222;5.688;2023-12-20T15:21:55;2.40;;;2.00;;
14770;SDS011;7477;45.222;5.688;2023-12-20T15:25:14;2.72;;;2.15;;
14770;SDS011;7477;45.222;5.688;2023-12-20T15:28:40;2.75;;;2.10;;
14770;SDS011;7477;45.222;5.688;2023-12-20T15:31:59;3.25;;;1.95;;
14770;SDS011;7477;45.222;5.688;2023-12-20T15:35:18;3.78;;;2.17;;
14770;SDS011;7477;45.222;5.688;2023-12-20T15:38:38;3.00;;;2.35;;
14770;SDS011;7477;45.222;5.688;2023-12-20T15:41:57;4.32;;;2.45;;
14770;SDS011;7477;45.222;5.688;2023-12-20T15:45:16;4.03;;;2.80;;
14770;SDS011;7477;45.222;5.688;2023-12-20T15:48:35;3.50;;;2.38;;
14770;SDS011;7477;45.222;5.688;2023-12-20T15:51:55;4.82;;;3.03;;
14770;SDS011;7477;45.222;5.688;2023-12-20T15:55:14;6.07;;;2.88;;
14770;SDS011;7477;45.222;5.688;2023-12-20T15:58:33;2.20;;;1.73;;
14770;SDS011;7477;45.222;5.688;2023-12-20T16:01:52;3.30;;;2.20;;
14770;SDS011;7477;45.222;5.688;2023-12-20T16:05:12;5.25;;;2.40;;
14770;SDS011;7477;45.222;5.688;2023-12-20T16:08:31;3.05;;;2.28;;
14770;SDS011;7477;45.222;5.688;2023-12-20T16:11:51;6.72;;;3.10;;
14770;SDS011;7477;45.222;5.688;2023-12-20T16:15:10;5.63;;;3.08;;
14770;SDS011;7477;45.222;5.688;2023-12-20T16:18:29;6.68;;;3.10;;
14770;SDS011;7477;45.222;5.688;2023-12-20T16:21:49;2.25;;;1.80;;
14770;SDS011;7477;45.222;5.688;2023-12-20T16:25:08;7.05;;;2.70;;
14770;SDS011;7477;45.222;5.688;2023-12-20T16:28:29;6.78;;;3.95;;
14770;SDS011;7477;45.222;5.688;2023-12-20T16:31:48;5.95;;;3.50;;
14770;SDS011;7477;45.222;5.688;2023-12-20T16:35:07;6.07;;;3.53;;
14770;SDS011;7477;45.222;5.688;2023-12-20T16:38:27;6.22;;;3.17;;
14770;SDS011;7477;45.222;5.688;2023-12-20T16:41:46;4.47;;;2.20;;
14770;SDS011;7477;45.222;5.688;2023-12-20T16:45:06;5.50;;;3.47;;
14770;SDS011;7477;45.222;5.688;2023-12-20T16:48:25;5.70;;;3.15;;
14770;SDS011;7477;45.222;5.688;2023-12-20T16:51:45;6.68;;;2.83;;
14770;SDS011;7477;45.222;5.688;2023-12-20T16:55:04;8.43;;;2.67;;
14770;SDS011;7477;45.222;5.688;2023-12-20T16:58:24;5.85;;;3.15;;
14770;SDS011;7477;45.222;5.688;2023-12-20T17:01:43;4.35;;;2.72;;
14770;SDS011;7477;45.222;5.688;2023-12-20T17:05:04;4.50;;;2.63;;
14770;SDS011;7477;45.222;5.688;2023-12-20T17:08:24;5.22;;;2.13;;
14770;SDS011;7477;45.222;5.688;2023-12-20T17:11:43;7.00;;;3.03;;
14770;SDS011;7477;45.222;5.688;2023-12-20T17:15:02;8.73;;;3.58;;
14770;SDS011;7477;45.222;5.688;2023-12-20T17:18:22;4.32;;;3.08;;
14770;SDS011;7477;45.222;5.688;2023-12-20T17:21:44;4.30;;;2.97;;
14770;SDS011;7477;45.222;5.688;2023-12-20T17:25:03;5.38;;;2.60;;
14770;SDS011;7477;45.222;5.688;2023-12-20T17:28:23;4.93;;;2.17;;
14770;SDS011;7477;45.222;5.688;2023-12-20T17:31:42;2.47;;;1.92;;
14770;SDS011;7477;45.222;5.688;2023-12-20T17:35:01;4.22;;;2.30;;
14770;SDS011;7477;45.222;5.688;2023-12-20T17:38:21;3.50;;;2.60;;
14770;SDS011;7477;45.222;5.688;2023-12-20T17:41:40;3.15;;;1.85;;
14770;SDS011;7477;45.222;5.688;2023-12-20T17:44:59;6.28;;;2.60;;
14770;SDS011;7477;45.222;5.688;2023-12-20T17:48:19;3.25;;;1.73;;
14770;SDS011;7477;45.222;5.688;2023-12-20T17:51:39;3.00;;;1.60;;
14770;SDS011;7477;45.222;5.688;2023-12-20T17:54:58;3.08;;;2.30;;
14770;SDS011;7477;45.222;5.688;2023-12-20T17:58:18;2.45;;;1.80;;
14770;SDS011;7477;45.222;5.688;2023-12-20T18:01:37;4.50;;;2.35;;
14770;SDS011;7477;45.222;5.688;2023-12-20T18:04:56;5.95;;;2.03;;
14770;SDS011;7477;45.222;5.688;2023-12-20T18:08:16;2.90;;;2.20;;
14770;SDS011;7477;45.222;5.688;2023-12-20T18:11:35;2.47;;;2.00;;
14770;SDS011;7477;45.222;5.688;2023-12-20T18:14:55;4.00;;;2.38;;
14770;SDS011;7477;45.222;5.688;2023-12-20T18:18:14;4.75;;;3.15;;
14770;SDS011;7477;45.222;5.688;2023-12-20T18:21:33;3.58;;;2.10;;
14770;SDS011;7477;45.222;5.688;2023-12-20T18:24:52;3.72;;;2.33;;
14770;SDS011;7477;45.222;5.688;2023-12-20T18:28:12;2.42;;;2.08;;
14770;SDS011;7477;45.222;5.688;2023-12-20T18:31:32;2.33;;;2.05;;
14770;SDS011;7477;45.222;5.688;2023-12-20T18:34:51;4.95;;;2.03;;
14770;SDS011;7477;45.222;5.688;2023-12-20T18:38:10;3.83;;;2.58;;
14770;SDS011;7477;45.222;5.688;2023-12-20T18:41:30;3.10;;;1.55;;
14770;SDS011;7477;45.222;5.688;2023-12-20T18:44:49;4.90;;;2.40;;
14770;SDS011;7477;45.222;5.688;2023-12-20T18:48:08;4.88;;;2.65;;
14770;SDS011;7477;45.222;5.688;2023-12-20T18:51:27;5.68;;;2.90;;
14770;SDS011;7477;45.222;5.688;2023-12-20T18:54:47;2.60;;;1.98;;
14770;SDS011;7477;45.222;5.688;2023-12-20T18:58:06;5.85;;;2.30;;
14770;SDS011;7477;45.222;5.688;2023-12-20T19:01:25;6.72;;;2.70;;
14770;SDS011;7477;45.222;5.688;2023-12-20T19:04:45;4.05;;;2.42;;
14770;SDS011;7477;45.222;5.688;2023-12-20T19:08:04;7.45;;;3.47;;
14770;SDS011;7477;45.222;5.688;2023-12-20T19:11:23;3.45;;;2.40;;
14770;SDS011;7477;45.222;5.688;2023-12-20T19:14:43;4.75;;;2.90;;
14770;SDS011;7477;45.222;5.688;2023-12-20T19:18:05;6.40;;;3.20;;
14770;SDS011;7477;45.222;5.688;2023-12-20T19:21:24;3.25;;;2.47;;
14770;SDS011;7477;45.222;5.688;2023-12-20T19:24:43;5.00;;;2.35;;
14770;SDS011;7477;45.222;5.688;2023-12-20T19:28:02;5.15;;;3.08;;
14770;SDS011;7477;45.222;5.688;2023-12-20T19:31:22;4.95;;;2.40;;
14770;SDS011;7477;45.222;5.688;2023-12-20T19:34:41;4.22;;;2.38;;
14770;SDS011;7477;45.222;5.688;2023-12-20T19:38:01;3.95;;;2.40;;
14770;SDS011;7477;45.222;5.688;2023-12-20T19:41:20;6.93;;;3.20;;
14770;SDS011;7477;45.222;5.688;2023-12-20T19:44:39;5.97;;;3.17;;
14770;SDS011;7477;45.222;5.688;2023-12-20T19:47:59;4.28;;;2.50;;
14770;SDS011;7477;45.222;5.688;2023-12-20T19:51:18;5.30;;;2.67;;
14770;SDS011;7477;45.222;5.688;2023-12-20T19:54:39;5.40;;;2.40;;
14770;SDS011;7477;45.222;5.688;2023-12-20T19:57:58;2.45;;;1.90;;
14770;SDS011;7477;45.222;5.688;2023-12-20T20:01:18;5.93;;;2.10;;
14770;SDS011;7477;45.222;5.688;2023-12-20T20:04:37;2.95;;;2.35;;
14770;SDS011;7477;45.222;5.688;2023-12-20T20:07:56;6.90;;;2.78;;
14770;SDS011;7477;45.222;5.688;2023-12-20T20:11:15;3.80;;;2.08;;
14770;SDS011;7477;45.222;5.688;2023-12-20T20:14:35;5.90;;;2.00;;
14770;SDS011;7477;45.222;5.688;2023-12-20T20:17:54;6.10;;;2.28;;
14770;SDS011;7477;45.222;5.688;2023-12-20T20:21:14;2.47;;;1.90;;